sensor_id;sensor_type;location;lat;lon;timestamp;pressure;altitude;pressure_sealevel;temperature;humidity
30897;BME280;64229;52.246;21.054;2023-08-30T00:00:04;99352.09;;;20.01;100.00
30897;BME280;64229;52.246;21.054;2023-08-30T00:02:29;99365.91;;;20.11;100.00
30897;BME280;64229;52.246;21.054;2023-08-30T00:05:01;99369.03;;;20.13;100.00
30897;BME280;64229;52.246;21.054;2023-08-30T00:07:27;99367.03;;;20.10;100.00
30897;BME280;64229;52.246;21.054;2023-08-30T00:09:52;99378.47;;;20.04;100.00
30897;BME280;64229;52.246;21.054;2023-08-30T00:12:17;99373.66;;;19.97;100.00
30897;BME280;64229;52.246;21.054;2023-08-30T00:14:43;99363.88;;;19.92;100.00
30897;BME280;64229;52.246;21.054;2023-08-30T00:17:08;99364.59;;;19.89;100.00
30897;BME280;64229;52.246;21.054;2023-08-30T00:19:34;99360.47;;;19.80;100.00
30897;BME280;64229;52.246;21.054;2023-08-30T00:21:59;99352.25;;;19.76;100.00
30897;BME280;64229;52.246;21.054;2023-08-30T00:24:24;99376.03;;;19.83;100.00
30897;BME280;64229;52.246;21.054;2023-08-30T00:26:49;99390.19;;;19.92;100.00
30897;BME280;64229;52.246;21.054;2023-08-30T00:29:15;99397.50;;;20.07;100.00
30897;BME280;64229;52.246;21.054;2023-08-30T00:31:40;99393.25;;;19.90;100.00
30897;BME280;64229;52.246;21.054;2023-08-30T00:34:05;99403.28;;;19.90;100.00
30897;BME280;64229;52.246;21.054;2023-08-30T00:36:30;99403.91;;;19.99;100.00
30897;BME280;64229;52.246;21.054;2023-08-30T00:38:56;99407.22;;;19.92;100.00
30897;BME280;64229;52.246;21.054;2023-08-30T00:41:21;99403.81;;;19.80;100.00
30897;BME280;64229;52.246;21.054;2023-08-30T00:43:46;99402.72;;;19.69;100.00
30897;BME280;64229;52.246;21.054;2023-08-30T00:46:12;99392.94;;;19.64;100.00
30897;BME280;64229;52.246;21.054;2023-08-30T00:48:38;99397.19;;;19.65;100.00
30897;BME280;64229;52.246;21.054;2023-08-30T00:51:04;99399.47;;;19.63;100.00
30897;BME280;64229;52.246;21.054;2023-08-30T00:53:29;99407.94;;;19.61;100.00
30897;BME280;64229;52.246;21.054;2023-08-30T00:55:54;99405.94;;;19.58;100.00
30897;BME280;64229;52.246;21.054;2023-08-30T00:58:20;99411.72;;;19.57;100.00
30897;BME280;64229;52.246;21.054;2023-08-30T01:00:45;99426.09;;;19.61;100.00
30897;BME280;64229;52.246;21.054;2023-08-30T01:03:12;99422.63;;;19.60;100.00
30897;BME280;64229;52.246;21.054;2023-08-30T01:05:38;99437.72;;;19.89;100.00
30897;BME280;64229;52.246;21.054;2023-08-30T01:08:04;99434.38;;;19.80;100.00
30897;BME280;64229;52.246;21.054;2023-08-30T01:10:46;99434.50;;;19.72;100.00
30897;BME280;64229;52.246;21.054;2023-08-30T01:13:16;99442.44;;;19.64;100.00
30897;BME280;64229;52.246;21.054;2023-08-30T01:15:45;99448.97;;;19.63;100.00
30897;BME280;64229;52.246;21.054;2023-08-30T01:18:11;99444.63;;;19.59;100.00
30897;BME280;64229;52.246;21.054;2023-08-30T01:20:38;99453.72;;;19.54;100.00
30897;BME280;64229;52.246;21.054;2023-08-30T01:23:06;99452.16;;;19.53;100.00
30897;BME280;64229;52.246;21.054;2023-08-30T01:25:50;99465.94;;;19.76;100.00
30897;BME280;64229;52.246;21.054;2023-08-30T01:28:21;99470.63;;;19.63;100.00
30897;BME280;64229;52.246;21.054;2023-08-30T01:30:48;99450.97;;;19.39;100.00
30897;BME280;64229;52.246;21.054;2023-08-30T01:33:14;99450.31;;;19.29;100.00
30897;BME280;64229;52.246;21.054;2023-08-30T01:35:40;99446.28;;;19.23;100.00
30897;BME280;64229;52.246;21.054;2023-08-30T01:38:06;99448.09;;;19.19;100.00
30897;BME280;64229;52.246;21.054;2023-08-30T01:40:37;99452.72;;;19.19;100.00
30897;BME280;64229;52.246;21.054;2023-08-30T01:43:05;99448.00;;;19.16;100.00
30897;BME280;64229;52.246;21.054;2023-08-30T01:45:35;99437.66;;;19.05;100.00
30897;BME280;64229;52.246;21.054;2023-08-30T01:48:00;99450.50;;;19.08;100.00
30897;BME280;64229;52.246;21.054;2023-08-30T01:50:27;99455.13;;;19.08;100.00
30897;BME280;64229;52.246;21.054;2023-08-30T01:52:53;99447.78;;;19.08;100.00
30897;BME280;64229;52.246;21.054;2023-08-30T01:55:21;99452.31;;;19.04;100.00
30897;BME280;64229;52.246;21.054;2023-08-30T01:57:47;99440.59;;;19.00;100.00
30897;BME280;64229;52.246;21.054;2023-08-30T02:00:12;99442.81;;;19.11;100.00
30897;BME280;64229;52.246;21.054;2023-08-30T02:02:38;99442.81;;;19.11;100.00
30897;BME280;64229;52.246;21.054;2023-08-30T02:05:04;99454.56;;;19.02;100.00
30897;BME280;64229;52.246;21.054;2023-08-30T02:10:17;99446.59;;;18.94;100.00
30897;BME280;64229;52.246;21.054;2023-08-30T02:12:49;99438.69;;;18.89;100.00
30897;BME280;64229;52.246;21.054;2023-08-30T02:15:18;99438.09;;;19.07;100.00
30897;BME280;64229;52.246;21.054;2023-08-30T02:17:45;99417.38;;;18.99;100.00
30897;BME280;64229;52.246;21.054;2023-08-30T02:20:10;99417.63;;;18.94;100.00
30897;BME280;64229;52.246;21.054;2023-08-30T02:22:36;99398.94;;;18.89;100.00
30897;BME280;64229;52.246;21.054;2023-08-30T02:25:02;99387.66;;;18.87;100.00
30897;BME280;64229;52.246;21.054;2023-08-30T02:27:33;99395.44;;;18.89;100.00
30897;BME280;64229;52.246;21.054;2023-08-30T02:29:58;99390.81;;;18.89;100.00
30897;BME280;64229;52.246;21.054;2023-08-30T02:32:23;99378.91;;;18.78;100.00
30897;BME280;64229;52.246;21.054;2023-08-30T02:34:50;99370.78;;;18.78;100.00
30897;BME280;64229;52.246;21.054;2023-08-30T02:37:16;99367.41;;;18.81;100.00
30897;BME280;64229;52.246;21.054;2023-08-30T02:39:41;99381.84;;;18.73;100.00
30897;BME280;64229;52.246;21.054;2023-08-30T02:42:06;99373.53;;;18.66;100.00
30897;BME280;64229;52.246;21.054;2023-08-30T02:44:31;99363.50;;;18.66;100.00
30897;BME280;64229;52.246;21.054;2023-08-30T02:46:57;99360.34;;;18.64;100.00
30897;BME280;64229;52.246;21.054;2023-08-30T02:49:22;99346.69;;;18.61;100.00
30897;BME280;64229;52.246;21.054;2023-08-30T02:51:47;99341.53;;;18.56;100.00
30897;BME280;64229;52.246;21.054;2023-08-30T02:54:13;99341.19;;;18.57;100.00
30897;BME280;64229;52.246;21.054;2023-08-30T02:56:39;99338.38;;;18.54;100.00
30897;BME280;64229;52.246;21.054;2023-08-30T02:59:05;99332.84;;;18.50;100.00
30897;BME280;64229;52.246;21.054;2023-08-30T03:01:30;99340.50;;;18.48;100.00
30897;BME280;64229;52.246;21.054;2023-08-30T03:03:55;99328.81;;;18.44;100.00
30897;BME280;64229;52.246;21.054;2023-08-30T03:06:20;99337.94;;;18.39;100.00
30897;BME280;64229;52.246;21.054;2023-08-30T03:08:46;99327.03;;;18.36;100.00
30897;BME280;64229;52.246;21.054;2023-08-30T03:11:12;99328.50;;;18.33;100.00
30897;BME280;64229;52.246;21.054;2023-08-30T03:13:38;99341.56;;;18.31;100.00
30897;BME280;64229;52.246;21.054;2023-08-30T03:16:16;99336.38;;;18.26;100.00
30897;BME280;64229;52.246;21.054;2023-08-30T03:18:42;99338.72;;;18.28;100.00
30897;BME280;64229;52.246;21.054;2023-08-30T03:21:09;99345.72;;;18.29;100.00
30897;BME280;64229;52.246;21.054;2023-08-30T03:23:34;99346.41;;;18.26;100.00
30897;BME280;64229;52.246;21.054;2023-08-30T03:26:11;99338.63;;;18.24;100.00
30897;BME280;64229;52.246;21.054;2023-08-30T03:28:37;99336.72;;;18.25;100.00
30897;BME280;64229;52.246;21.054;2023-08-30T03:33:41;99346.53;;;18.29;100.00
30897;BME280;64229;52.246;21.054;2023-08-30T03:36:09;99347.31;;;18.30;100.00
30897;BME280;64229;52.246;21.054;2023-08-30T03:38:35;99349.44;;;18.24;100.00
30897;BME280;64229;52.246;21.054;2023-08-30T03:41:00;99337.41;;;18.21;100.00
30897;BME280;64229;52.246;21.054;2023-08-30T03:43:25;99349.00;;;18.22;100.00
30897;BME280;64229;52.246;21.054;2023-08-30T03:45:50;99355.72;;;18.28;100.00
30897;BME280;64229;52.246;21.054;2023-08-30T03:48:17;99362.50;;;18.22;100.00
30897;BME280;64229;52.246;21.054;2023-08-30T03:50:42;99358.88;;;18.18;100.00
30897;BME280;64229;52.246;21.054;2023-08-30T03:53:07;99349.69;;;18.19;100.00
30897;BME280;64229;52.246;21.054;2023-08-30T03:55:33;99357.78;;;18.19;100.00
30897;BME280;64229;52.246;21.054;2023-08-30T03:57:59;99358.13;;;18.30;100.00
30897;BME280;64229;52.246;21.054;2023-08-30T04:00:24;99351.59;;;18.18;100.00
30897;BME280;64229;52.246;21.054;2023-08-30T04:02:49;99351.34;;;18.24;100.00
30897;BME280;64229;52.246;21.054;2023-08-30T04:05:15;99358.78;;;18.14;100.00
30897;BME280;64229;52.246;21.054;2023-08-30T04:07:40;99357.53;;;18.12;100.00
30897;BME280;64229;52.246;21.054;2023-08-30T04:10:05;99358.09;;;18.05;100.00
30897;BME280;64229;52.246;21.054;2023-08-30T04:12:32;99359.09;;;18.01;100.00
30897;BME280;64229;52.246;21.054;2023-08-30T04:14:57;99362.59;;;18.01;100.00
30897;BME280;64229;52.246;21.054;2023-08-30T04:17:22;99357.53;;;18.00;100.00
30897;BME280;64229;52.246;21.054;2023-08-30T04:19:51;99348.75;;;18.03;100.00
30897;BME280;64229;52.246;21.054;2023-08-30T04:22:16;99346.84;;;18.03;100.00
30897;BME280;64229;52.246;21.054;2023-08-30T04:24:42;99337.75;;;18.08;100.00
30897;BME280;64229;52.246;21.054;2023-08-30T04:27:07;99340.75;;;18.06;100.00
30897;BME280;64229;52.246;21.054;2023-08-30T04:29:32;99351.56;;;18.06;100.00
30897;BME280;64229;52.246;21.054;2023-08-30T04:31:57;99346.16;;;18.06;100.00
30897;BME280;64229;52.246;21.054;2023-08-30T04:34:23;99357.66;;;18.15;100.00
30897;BME280;64229;52.246;21.054;2023-08-30T04:36:48;99347.09;;;18.10;100.00
30897;BME280;64229;52.246;21.054;2023-08-30T04:39:13;99349.09;;;18.13;100.00
30897;BME280;64229;52.246;21.054;2023-08-30T04:41:39;99342.91;;;18.13;100.00
30897;BME280;64229;52.246;21.054;2023-08-30T04:44:04;99360.25;;;18.12;100.00
30897;BME280;64229;52.246;21.054;2023-08-30T04:46:29;99366.22;;;18.30;100.00
30897;BME280;64229;52.246;21.054;2023-08-30T04:48:55;99367.13;;;18.21;100.00
30897;BME280;64229;52.246;21.054;2023-08-30T04:51:20;99383.41;;;18.13;100.00
30897;BME280;64229;52.246;21.054;2023-08-30T04:53:45;99390.28;;;18.10;100.00
30897;BME280;64229;52.246;21.054;2023-08-30T04:56:14;99377.00;;;18.05;100.00
30897;BME280;64229;52.246;21.054;2023-08-30T04:58:39;99381.06;;;18.11;100.00
30897;BME280;64229;52.246;21.054;2023-08-30T05:01:05;99393.09;;;18.14;100.00
30897;BME280;64229;52.246;21.054;2023-08-30T05:03:30;99390.63;;;18.09;100.00
30897;BME280;64229;52.246;21.054;2023-08-30T05:05:55;99391.41;;;18.09;100.00
30897;BME280;64229;52.246;21.054;2023-08-30T05:08:21;99402.22;;;18.09;100.00
30897;BME280;64229;52.246;21.054;2023-08-30T05:10:46;99404.91;;;18.09;100.00
30897;BME280;64229;52.246;21.054;2023-08-30T05:13:11;99408.06;;;18.11;100.00
30897;BME280;64229;52.246;21.054;2023-08-30T05:15:37;99415.47;;;18.14;100.00
30897;BME280;64229;52.246;21.054;2023-08-30T05:18:03;99428.66;;;18.16;100.00
30897;BME280;64229;52.246;21.054;2023-08-30T05:20:28;99426.63;;;18.13;100.00
30897;BME280;64229;52.246;21.054;2023-08-30T05:22:53;99434.72;;;18.25;100.00
30897;BME280;64229;52.246;21.054;2023-08-30T05:25:19;99441.50;;;18.31;100.00
30897;BME280;64229;52.246;21.054;2023-08-30T05:27:44;99437.44;;;18.25;100.00
30897;BME280;64229;52.246;21.054;2023-08-30T05:30:10;99437.44;;;18.25;100.00
30897;BME280;64229;52.246;21.054;2023-08-30T05:32:35;99442.38;;;18.23;100.00
30897;BME280;64229;52.246;21.054;2023-08-30T05:35:00;99453.75;;;18.29;100.00
30897;BME280;64229;52.246;21.054;2023-08-30T05:37:26;99453.31;;;18.27;100.00
30897;BME280;64229;52.246;21.054;2023-08-30T05:39:51;99454.88;;;18.28;100.00
30897;BME280;64229;52.246;21.054;2023-08-30T05:42:16;99460.63;;;18.26;100.00
30897;BME280;64229;52.246;21.054;2023-08-30T05:44:42;99452.06;;;18.24;100.00
30897;BME280;64229;52.246;21.054;2023-08-30T05:47:07;99446.66;;;18.24;100.00
30897;BME280;64229;52.246;21.054;2023-08-30T05:49:32;99456.00;;;18.27;100.00
30897;BME280;64229;52.246;21.054;2023-08-30T05:51:57;99451.53;;;18.31;100.00
30897;BME280;64229;52.246;21.054;2023-08-30T05:54:23;99452.97;;;18.28;100.00
30897;BME280;64229;52.246;21.054;2023-08-30T05:56:48;99451.38;;;18.27;100.00
30897;BME280;64229;52.246;21.054;2023-08-30T05:59:14;99460.41;;;18.31;100.00
30897;BME280;64229;52.246;21.054;2023-08-30T06:01:39;99463.47;;;18.30;100.00
30897;BME280;64229;52.246;21.054;2023-08-30T06:04:04;99463.91;;;18.32;100.00
30897;BME280;64229;52.246;21.054;2023-08-30T06:06:30;99451.53;;;18.31;100.00
30897;BME280;64229;52.246;21.054;2023-08-30T06:08:55;99453.66;;;18.37;100.00
30897;BME280;64229;52.246;21.054;2023-08-30T06:11:20;99447.81;;;18.35;100.00
30897;BME280;64229;52.246;21.054;2023-08-30T06:13:45;99448.59;;;18.36;100.00
30897;BME280;64229;52.246;21.054;2023-08-30T06:16:11;99448.47;;;18.32;100.00
30897;BME280;64229;52.246;21.054;2023-08-30T06:18:36;99446.81;;;18.40;100.00
30897;BME280;64229;52.246;21.054;2023-08-30T06:21:02;99442.84;;;18.37;100.00
30897;BME280;64229;52.246;21.054;2023-08-30T06:23:29;99447.25;;;18.42;100.00
30897;BME280;64229;52.246;21.054;2023-08-30T06:25:55;99450.75;;;18.42;100.00
30897;BME280;64229;52.246;21.054;2023-08-30T06:28:21;99446.34;;;18.38;100.00
30897;BME280;64229;52.246;21.054;2023-08-30T06:30:46;99444.22;;;18.31;100.00
30897;BME280;64229;52.246;21.054;2023-08-30T06:33:12;99447.34;;;18.33;100.00
30897;BME280;64229;52.246;21.054;2023-08-30T06:35:37;99460.88;;;18.33;100.00
30897;BME280;64229;52.246;21.054;2023-08-30T06:38:06;99449.59;;;18.31;100.00
30897;BME280;64229;52.246;21.054;2023-08-30T06:40:32;99452.66;;;18.30;100.00
30897;BME280;64229;52.246;21.054;2023-08-30T06:42:57;99461.75;;;18.25;100.00
30897;BME280;64229;52.246;21.054;2023-08-30T06:45:24;99465.56;;;18.24;100.00
30897;BME280;64229;52.246;21.054;2023-08-30T06:47:49;99459.28;;;18.20;100.00
30897;BME280;64229;52.246;21.054;2023-08-30T06:50:15;99464.19;;;18.18;100.00
30897;BME280;64229;52.246;21.054;2023-08-30T06:52:40;99446.66;;;18.12;100.00
30897;BME280;64229;52.246;21.054;2023-08-30T06:55:05;99462.41;;;18.22;100.00
30897;BME280;64229;52.246;21.054;2023-08-30T06:57:31;99458.25;;;18.25;100.00
30897;BME280;64229;52.246;21.054;2023-08-30T06:59:56;99457.47;;;18.24;100.00
30897;BME280;64229;52.246;21.054;2023-08-30T07:02:22;99453.63;;;18.25;100.00
30897;BME280;64229;52.246;21.054;2023-08-30T07:04:47;99455.56;;;18.25;100.00
30897;BME280;64229;52.246;21.054;2023-08-30T07:07:13;99461.63;;;18.21;100.00
30897;BME280;64229;52.246;21.054;2023-08-30T07:09:39;99466.59;;;18.19;100.00
30897;BME280;64229;52.246;21.054;2023-08-30T07:12:04;99470.88;;;18.20;100.00
30897;BME280;64229;52.246;21.054;2023-08-30T07:14:30;99468.16;;;18.20;100.00
30897;BME280;64229;52.246;21.054;2023-08-30T07:16:55;99461.28;;;18.23;100.00
30897;BME280;64229;52.246;21.054;2023-08-30T07:19:20;99469.41;;;18.23;100.00
30897;BME280;64229;52.246;21.054;2023-08-30T07:21:45;99471.31;;;18.23;100.00
30897;BME280;64229;52.246;21.054;2023-08-30T07:24:11;99459.63;;;18.18;100.00
30897;BME280;64229;52.246;21.054;2023-08-30T07:26:36;99470.63;;;18.26;100.00
30897;BME280;64229;52.246;21.054;2023-08-30T07:29:03;99462.88;;;18.24;100.00
30897;BME280;64229;52.246;21.054;2023-08-30T07:31:30;99473.34;;;18.26;100.00
30897;BME280;64229;52.246;21.054;2023-08-30T07:33:56;99463.13;;;18.31;100.00
30897;BME280;64229;52.246;21.054;2023-08-30T07:36:23;99461.06;;;18.28;100.00
30897;BME280;64229;52.246;21.054;2023-08-30T07:38:48;99462.19;;;18.27;100.00
30897;BME280;64229;52.246;21.054;2023-08-30T07:41:13;99462.53;;;18.26;100.00
30897;BME280;64229;52.246;21.054;2023-08-30T07:43:38;99442.16;;;18.16;100.00
30897;BME280;64229;52.246;21.054;2023-08-30T07:46:04;99455.56;;;18.25;100.00
30897;BME280;64229;52.246;21.054;2023-08-30T07:48:29;99457.13;;;18.26;100.00
30897;BME280;64229;52.246;21.054;2023-08-30T07:50:54;99456.22;;;18.21;100.00
30897;BME280;64229;52.246;21.054;2023-08-30T07:53:19;99454.66;;;18.20;100.00
30897;BME280;64229;52.246;21.054;2023-08-30T07:55:49;99458.50;;;18.19;100.00
30897;BME280;64229;52.246;21.054;2023-08-30T07:58:15;99459.28;;;18.20;100.00
30897;BME280;64229;52.246;21.054;2023-08-30T08:00:40;99458.78;;;18.18;100.00
30897;BME280;64229;52.246;21.054;2023-08-30T08:03:06;99454.53;;;18.17;100.00
30897;BME280;64229;52.246;21.054;2023-08-30T08:05:31;99454.88;;;18.15;100.00
30897;BME280;64229;52.246;21.054;2023-08-30T08:07:59;99462.97;;;18.15;100.00
30897;BME280;64229;52.246;21.054;2023-08-30T08:10:25;99458.13;;;18.09;100.00
30897;BME280;64229;52.246;21.054;2023-08-30T08:12:50;99470.84;;;18.08;100.00
30897;BME280;64229;52.246;21.054;2023-08-30T08:15:16;99468.16;;;18.08;100.00
30897;BME280;64229;52.246;21.054;2023-08-30T08:17:42;99464.66;;;18.08;100.00
30897;BME280;64229;52.246;21.054;2023-08-30T08:20:07;99459.91;;;18.05;100.00
30897;BME280;64229;52.246;21.054;2023-08-30T08:22:33;99458.44;;;18.07;100.00
30897;BME280;64229;52.246;21.054;2023-08-30T08:24:58;99453.38;;;18.06;100.00
30897;BME280;64229;52.246;21.054;2023-08-30T08:27:26;99446.84;;;18.07;100.00
30897;BME280;64229;52.246;21.054;2023-08-30T08:29:51;99448.75;;;18.06;100.00
30897;BME280;64229;52.246;21.054;2023-08-30T08:32:16;99449.56;;;18.07;100.00
30897;BME280;64229;52.246;21.054;2023-08-30T08:34:42;99454.31;;;18.10;100.00
30897;BME280;64229;52.246;21.054;2023-08-30T08:37:07;99447.97;;;18.06;100.00
30897;BME280;64229;52.246;21.054;2023-08-30T08:39:32;99441.69;;;18.02;100.00
30897;BME280;64229;52.246;21.054;2023-08-30T08:41:59;99451.25;;;17.99;100.00
30897;BME280;64229;52.246;21.054;2023-08-30T08:44:26;99440.78;;;17.98;100.00
30897;BME280;64229;52.246;21.054;2023-08-30T08:46:54;99440.44;;;17.99;100.00
30897;BME280;64229;52.246;21.054;2023-08-30T08:49:20;99435.16;;;18.03;100.00
30897;BME280;64229;52.246;21.054;2023-08-30T08:51:45;99421.88;;;17.98;100.00
30897;BME280;64229;52.246;21.054;2023-08-30T08:54:12;99425.38;;;17.98;100.00
30897;BME280;64229;52.246;21.054;2023-08-30T08:56:38;99442.22;;;17.95;100.00
30897;BME280;64229;52.246;21.054;2023-08-30T08:59:04;99452.13;;;17.91;100.00
30897;BME280;64229;52.246;21.054;2023-08-30T09:01:34;99444.22;;;17.86;100.00
30897;BME280;64229;52.246;21.054;2023-08-30T09:04:04;99441.06;;;17.84;100.00
30897;BME280;64229;52.246;21.054;2023-08-30T09:06:30;99437.81;;;17.78;100.00
30897;BME280;64229;52.246;21.054;2023-08-30T09:08:55;99429.31;;;17.68;100.00
30897;BME280;64229;52.246;21.054;2023-08-30T09:11:20;99433.22;;;17.58;100.00
30897;BME280;64229;52.246;21.054;2023-08-30T09:13:46;99440.19;;;17.59;100.00
30897;BME280;64229;52.246;21.054;2023-08-30T09:16:15;99442.28;;;17.53;100.00
30897;BME280;64229;52.246;21.054;2023-08-30T09:18:43;99440.91;;;17.47;100.00
30897;BME280;64229;52.246;21.054;2023-08-30T09:21:09;99429.41;;;17.38;100.00
30897;BME280;64229;52.246;21.054;2023-08-30T09:23:35;99422.16;;;17.30;100.00
30897;BME280;64229;52.246;21.054;2023-08-30T09:26:01;99438.28;;;17.39;100.00
30897;BME280;64229;52.246;21.054;2023-08-30T09:28:27;99442.97;;;17.29;100.00
30897;BME280;64229;52.246;21.054;2023-08-30T09:30:52;99449.34;;;17.25;100.00
30897;BME280;64229;52.246;21.054;2023-08-30T09:33:22;99448.09;;;17.22;100.00
30897;BME280;64229;52.246;21.054;2023-08-30T09:35:47;99449.41;;;17.16;100.00
30897;BME280;64229;52.246;21.054;2023-08-30T09:38:17;99453.16;;;17.24;100.00
30897;BME280;64229;52.246;21.054;2023-08-30T09:40:43;99448.09;;;17.22;100.00
30897;BME280;64229;52.246;21.054;2023-08-30T09:43:09;99443.81;;;17.21;100.00
30897;BME280;64229;52.246;21.054;2023-08-30T09:45:34;99439.53;;;17.20;100.00
30897;BME280;64229;52.246;21.054;2023-08-30T09:48:01;99436.38;;;17.18;100.00
30897;BME280;64229;52.246;21.054;2023-08-30T09:50:28;99439.41;;;17.17;100.00
30897;BME280;64229;52.246;21.054;2023-08-30T09:52:54;99446.59;;;17.13;100.00
30897;BME280;64229;52.246;21.054;2023-08-30T09:55:21;99440.53;;;17.16;100.00
30897;BME280;64229;52.246;21.054;2023-08-30T09:57:48;99450.06;;;17.13;100.00
30897;BME280;64229;52.246;21.054;2023-08-30T10:00:14;99456.44;;;17.09;100.00
30897;BME280;64229;52.246;21.054;2023-08-30T10:02:41;99455.97;;;17.06;100.00
30897;BME280;64229;52.246;21.054;2023-08-30T10:05:09;99460.72;;;17.10;100.00
30897;BME280;64229;52.246;21.054;2023-08-30T10:07:38;99447.44;;;17.04;100.00
30897;BME280;64229;52.246;21.054;2023-08-30T10:10:04;99458.75;;;17.19;100.00
30897;BME280;64229;52.246;21.054;2023-08-30T10:12:31;99459.94;;;17.30;100.00
30897;BME280;64229;52.246;21.054;2023-08-30T10:14:57;99457.50;;;17.16;100.00
30897;BME280;64229;52.246;21.054;2023-08-30T10:17:27;99457.50;;;17.16;100.00
30897;BME280;64229;52.246;21.054;2023-08-30T10:19:54;99453.91;;;17.12;100.00
30897;BME280;64229;52.246;21.054;2023-08-30T10:22:20;99447.09;;;17.06;100.00
30897;BME280;64229;52.246;21.054;2023-08-30T10:24:53;99444.06;;;17.08;100.00
30897;BME280;64229;52.246;21.054;2023-08-30T10:27:19;99439.47;;;17.08;100.00
30897;BME280;64229;52.246;21.054;2023-08-30T10:29:48;99439.59;;;17.12;100.00
30897;BME280;64229;52.246;21.054;2023-08-30T10:32:19;99435.03;;;17.12;100.00
30897;BME280;64229;52.246;21.054;2023-08-30T10:34:47;99430.53;;;17.16;100.00
30897;BME280;64229;52.246;21.054;2023-08-30T10:37:13;99431.00;;;17.18;100.00
30897;BME280;64229;52.246;21.054;2023-08-30T10:39:40;99423.34;;;17.20;100.00
30897;BME280;64229;52.246;21.054;2023-08-30T10:44:35;99432.22;;;17.21;100.00
30897;BME280;64229;52.246;21.054;2023-08-30T10:47:02;99429.53;;;17.21;100.00
30897;BME280;64229;52.246;21.054;2023-08-30T10:49:29;99432.06;;;17.26;100.00
30897;BME280;64229;52.246;21.054;2023-08-30T10:51:55;99425.66;;;17.30;100.00
30897;BME280;64229;52.246;21.054;2023-08-30T10:54:22;99433.69;;;17.39;100.00
30897;BME280;64229;52.246;21.054;2023-08-30T10:56:55;99430.47;;;17.46;100.00
30897;BME280;64229;52.246;21.054;2023-08-30T10:59:22;99433.06;;;17.54;100.00
30897;BME280;64229;52.246;21.054;2023-08-30T11:01:49;99435.81;;;17.67;100.00
30897;BME280;64229;52.246;21.054;2023-08-30T11:04:16;99440.84;;;17.77;100.00
30897;BME280;64229;52.246;21.054;2023-08-30T11:06:46;99445.56;;;17.80;100.00
30897;BME280;64229;52.246;21.054;2023-08-30T11:09:13;99453.22;;;17.78;100.00
30897;BME280;64229;52.246;21.054;2023-08-30T11:11:39;99450.88;;;17.88;100.00
30897;BME280;64229;52.246;21.054;2023-08-30T11:14:08;99453.72;;;18.04;100.00
30897;BME280;64229;52.246;21.054;2023-08-30T11:16:37;99448.28;;;17.92;100.00
30897;BME280;64229;52.246;21.054;2023-08-30T11:19:06;99456.84;;;17.94;100.00
30897;BME280;64229;52.246;21.054;2023-08-30T11:21:33;99451.44;;;17.94;100.00
30897;BME280;64229;52.246;21.054;2023-08-30T11:23:59;99437.91;;;17.82;100.00
30897;BME280;64229;52.246;21.054;2023-08-30T11:26:25;99438.16;;;17.89;100.00
30897;BME280;64229;52.246;21.054;2023-08-30T11:28:50;99456.97;;;17.98;100.00
30897;BME280;64229;52.246;21.054;2023-08-30T11:31:27;99427.22;;;17.85;100.00
30897;BME280;64229;52.246;21.054;2023-08-30T11:33:56;99447.41;;;18.00;100.00
30897;BME280;64229;52.246;21.054;2023-08-30T11:36:23;99452.06;;;18.12;100.00
30897;BME280;64229;52.246;21.054;2023-08-30T11:38:49;99459.50;;;18.27;100.00
30897;BME280;64229;52.246;21.054;2023-08-30T11:41:15;99446.84;;;18.07;100.00
30897;BME280;64229;52.246;21.054;2023-08-30T11:43:41;99446.63;;;18.00;100.00
30897;BME280;64229;52.246;21.054;2023-08-30T11:46:08;99439.63;;;17.86;100.00
30897;BME280;64229;52.246;21.054;2023-08-30T11:48:33;99447.41;;;17.88;100.00
30897;BME280;64229;52.246;21.054;2023-08-30T11:50:59;99451.09;;;17.96;100.00
30897;BME280;64229;52.246;21.054;2023-08-30T11:53:25;99455.06;;;17.98;100.00
30897;BME280;64229;52.246;21.054;2023-08-30T11:55:51;99460.94;;;18.12;100.00
30897;BME280;64229;52.246;21.054;2023-08-30T11:58:20;99463.53;;;18.09;100.00
30897;BME280;64229;52.246;21.054;2023-08-30T12:00:46;99458.66;;;18.02;100.00
30897;BME280;64229;52.246;21.054;2023-08-30T12:03:14;99458.78;;;18.06;100.00
30897;BME280;64229;52.246;21.054;2023-08-30T12:05:50;99465.97;;;18.02;100.00
30897;BME280;64229;52.246;21.054;2023-08-30T12:08:25;99474.28;;;17.97;100.00
30897;BME280;64229;52.246;21.054;2023-08-30T12:10:51;99473.03;;;17.94;100.00
30897;BME280;64229;52.246;21.054;2023-08-30T12:13:24;99471.91;;;17.95;100.00
30897;BME280;64229;52.246;21.054;2023-08-30T12:15:59;99471.09;;;17.82;100.00
30897;BME280;64229;52.246;21.054;2023-08-30T12:18:27;99476.59;;;17.86;100.00
30897;BME280;64229;52.246;21.054;2023-08-30T12:21:00;99478.59;;;17.98;100.00
30897;BME280;64229;52.246;21.054;2023-08-30T12:23:27;99474.84;;;17.90;100.00
30897;BME280;64229;52.246;21.054;2023-08-30T12:26:06;99468.44;;;17.95;100.00
30897;BME280;64229;52.246;21.054;2023-08-30T12:28:33;99477.13;;;18.00;100.00
30897;BME280;64229;52.246;21.054;2023-08-30T12:30:59;99472.06;;;17.99;100.00
30897;BME280;64229;52.246;21.054;2023-08-30T12:33:25;99471.91;;;17.95;100.00
30897;BME280;64229;52.246;21.054;2023-08-30T12:35:54;99470.34;;;17.94;100.00
30897;BME280;64229;52.246;21.054;2023-08-30T12:38:20;99468.00;;;18.05;100.00
30897;BME280;64229;52.246;21.054;2023-08-30T12:40:46;99458.56;;;17.99;100.00
30897;BME280;64229;52.246;21.054;2023-08-30T12:43:15;99461.69;;;17.88;100.00